Terminal Aerodrome Forecast
Issued by NWS Albany, NY

Home | Current Version | Previous Version | Text Only | Print | Product List | Glossary On
Versions: 1 2 3 4 5 6 7 8 9 10 11 12 13 14 15 16 17 18 19 20 21 22 23 24 25 26 27 28
000
FTUS41 KALY 240520
TAFGFL
TAF
KGFL 240520Z 2406/2506 00000KT P6SM BKN080
     FM240800 00000KT P6SM FEW080
      TEMPO 2408/2411 2SM BR VV004
     FM241100 00000KT P6SM SKC
     FM241600 29007KT P6SM BKN040
     FM250200 35003KT P6SM SCT040 BKN070=

USA.gov is the U.S. government's official web portal to all federal, state and local government web resources and services.